DAL135 KDFW-LOWW
Flight info
| Callsign | DAL135 |
|---|---|
| Flight time | N/A |
| Altitude | 37000 |
| Route | CCV078023 MGERK Q133 LEEAH CYN SAILN Q97 BEEKN EBONY N433B ELSIR 5050N 5140N 5130N 5120N DINIM ELSOX ARKIL SIDDI DAWLY L620 SAM M140 DVR UL9 KONAN UL607 KOK MATUG AMASI BOMBI DETEV DINKU BESNI ALUTU AKIMA MASUR LOWW |
| Aircraft | A359/H-SDE2E3GHIJ3J4J5LM1ORWXY/LB1D1 |
Departure
| Time | N/A |
|---|---|
| Airport | Dallas Fort Worth International Airport (KDFW) |
Arrival
| Time | 2026-04-25 23:08 |
|---|---|
| Airport | Vienna International Airport (LOWW) |
| Time | Latitude | Longitude | Altitude | Speed | Heading |
|---|---|---|---|---|---|
| 2026-04-25 22:30 | 48.41686 | 13.33400 | 33054 ft | 518 kts | 89° |
| 2026-04-25 22:30 | 48.41728 | 13.37097 | 32768 ft | 516 kts | 84° |
| 2026-04-25 22:31 | 48.42090 | 13.44201 | 32212 ft | 518 kts | 83° |
| 2026-04-25 22:31 | 48.42406 | 13.49598 | 31785 ft | 519 kts | 83° |
| 2026-04-25 22:31 | 48.42723 | 13.55037 | 31359 ft | 521 kts | 83° |
| 2026-04-25 22:31 | 48.43037 | 13.60483 | 30933 ft | 523 kts | 83° |
| 2026-04-25 22:32 | 48.43348 | 13.65953 | 30509 ft | 525 kts | 84° |
| 2026-04-25 22:32 | 48.43657 | 13.71442 | 30084 ft | 527 kts | 84° |
| 2026-04-25 22:32 | 48.43965 | 13.76953 | 29661 ft | 528 kts | 84° |
| 2026-04-25 22:32 | 48.44269 | 13.82462 | 29235 ft | 527 kts | 84° |
| 2026-04-25 22:33 | 48.44569 | 13.87945 | 28810 ft | 525 kts | 84° |
| 2026-04-25 22:33 | 48.44867 | 13.93419 | 28386 ft | 522 kts | 84° |
| 2026-04-25 22:33 | 48.45159 | 13.98852 | 27961 ft | 519 kts | 84° |
| 2026-04-25 22:33 | 48.45448 | 14.04261 | 27541 ft | 516 kts | 84° |
| 2026-04-25 22:34 | 48.45732 | 14.09641 | 27109 ft | 514 kts | 84° |
| 2026-04-25 22:34 | 48.46011 | 14.14989 | 26674 ft | 511 kts | 84° |
| 2026-04-25 22:34 | 48.46288 | 14.20319 | 26259 ft | 509 kts | 84° |
| 2026-04-25 22:34 | 48.46561 | 14.25622 | 25836 ft | 506 kts | 84° |
| 2026-04-25 22:35 | 48.46830 | 14.30886 | 25408 ft | 503 kts | 84° |
| 2026-04-25 22:35 | 48.47094 | 14.36121 | 24976 ft | 500 kts | 84° |
| 2026-04-25 22:35 | 48.47355 | 14.41316 | 24554 ft | 496 kts | 84° |
| 2026-04-25 22:35 | 48.47608 | 14.46428 | 24137 ft | 493 kts | 84° |
| 2026-04-25 22:36 | 48.47861 | 14.51563 | 23718 ft | 490 kts | 84° |
| 2026-04-25 22:36 | 48.48110 | 14.56672 | 23285 ft | 487 kts | 84° |
| 2026-04-25 22:36 | 48.48357 | 14.61756 | 22861 ft | 485 kts | 84° |
| 2026-04-25 22:36 | 48.48598 | 14.66805 | 22437 ft | 482 kts | 84° |
| 2026-04-25 22:37 | 48.48836 | 14.71822 | 22011 ft | 479 kts | 84° |
| 2026-04-25 22:37 | 48.49071 | 14.76822 | 21586 ft | 476 kts | 84° |
| 2026-04-25 22:37 | 48.49301 | 14.81768 | 21148 ft | 469 kts | 84° |
| 2026-04-25 22:37 | 48.49519 | 14.86538 | 20720 ft | 443 kts | 84° |
| 2026-04-25 22:38 | 48.49724 | 14.91040 | 20288 ft | 419 kts | 84° |
| 2026-04-25 22:38 | 48.49917 | 14.95316 | 19859 ft | 399 kts | 84° |
| 2026-04-25 22:38 | 48.50097 | 14.99386 | 19455 ft | 380 kts | 83° |
| 2026-04-25 22:38 | 48.50272 | 15.03301 | 19079 ft | 371 kts | 83° |
| 2026-04-25 22:39 | 48.50445 | 15.07165 | 18708 ft | 367 kts | 83° |
| 2026-04-25 22:39 | 48.50614 | 15.10996 | 18333 ft | 364 kts | 83° |
| 2026-04-25 22:39 | 48.50779 | 15.14775 | 18066 ft | 359 kts | 83° |
| 2026-04-25 22:39 | 48.50942 | 15.18524 | 17812 ft | 358 kts | 83° |
| 2026-04-25 22:40 | 48.51104 | 15.22265 | 17562 ft | 357 kts | 83° |
| 2026-04-25 22:40 | 48.51264 | 15.25996 | 17311 ft | 356 kts | 83° |
| 2026-04-25 22:40 | 48.51422 | 15.29712 | 17093 ft | 354 kts | 83° |
| 2026-04-25 22:40 | 48.51578 | 15.33413 | 17029 ft | 354 kts | 83° |
| 2026-04-25 22:41 | 48.51732 | 15.37129 | 17021 ft | 354 kts | 83° |
| 2026-04-25 22:41 | 48.51886 | 15.40835 | 16864 ft | 354 kts | 83° |
| 2026-04-25 22:41 | 48.51945 | 15.44562 | 16434 ft | 355 kts | 90° |
| 2026-04-25 22:41 | 48.51660 | 15.48244 | 16072 ft | 353 kts | 102° |
| 2026-04-25 22:42 | 48.51057 | 15.51808 | 15700 ft | 350 kts | 105° |
| 2026-04-25 22:42 | 48.50385 | 15.55269 | 15279 ft | 348 kts | 106° |
| 2026-04-25 22:42 | 48.49675 | 15.58744 | 14860 ft | 345 kts | 107° |
| 2026-04-25 22:42 | 48.48955 | 15.62183 | 14450 ft | 343 kts | 107° |
| 2026-04-25 22:43 | 48.48231 | 15.65598 | 14029 ft | 341 kts | 107° |
| 2026-04-25 22:43 | 48.47507 | 15.68988 | 13641 ft | 338 kts | 107° |
| 2026-04-25 22:43 | 48.46785 | 15.72350 | 13255 ft | 335 kts | 107° |
| 2026-04-25 22:43 | 48.46067 | 15.75680 | 13017 ft | 334 kts | 108° |
| 2026-04-25 22:44 | 48.45347 | 15.79006 | 12991 ft | 334 kts | 108° |
| 2026-04-25 22:44 | 48.44627 | 15.82326 | 12989 ft | 334 kts | 108° |
| 2026-04-25 22:44 | 48.43905 | 15.85652 | 12989 ft | 334 kts | 108° |
| 2026-04-25 22:44 | 48.43184 | 15.88972 | 12989 ft | 334 kts | 108° |
| 2026-04-25 22:45 | 48.42461 | 15.92290 | 12989 ft | 334 kts | 108° |
| 2026-04-25 22:45 | 48.41737 | 15.95605 | 12988 ft | 333 kts | 108° |
| 2026-04-25 22:45 | 48.41012 | 15.98916 | 12979 ft | 333 kts | 108° |
| 2026-04-25 22:45 | 48.40287 | 16.02232 | 12605 ft | 333 kts | 108° |
| 2026-04-25 22:46 | 48.39564 | 16.05529 | 12219 ft | 331 kts | 108° |
| 2026-04-25 22:46 | 48.38845 | 16.08797 | 11854 ft | 327 kts | 108° |
| 2026-04-25 22:46 | 48.38142 | 16.11988 | 11438 ft | 325 kts | 108° |
| 2026-04-25 22:46 | 48.37434 | 16.15211 | 11028 ft | 323 kts | 108° |
| 2026-04-25 22:47 | 48.36730 | 16.18401 | 10629 ft | 320 kts | 108° |
| 2026-04-25 22:47 | 48.36030 | 16.21573 | 10194 ft | 319 kts | 108° |
| 2026-04-25 22:47 | 48.35330 | 16.24735 | 9775 ft | 318 kts | 108° |
| 2026-04-25 22:47 | 48.34632 | 16.27877 | 9391 ft | 316 kts | 108° |
| 2026-04-25 22:48 | 48.33939 | 16.30998 | 8979 ft | 314 kts | 108° |
| 2026-04-25 22:48 | 48.33251 | 16.34100 | 8532 ft | 313 kts | 108° |
| 2026-04-25 22:48 | 48.32564 | 16.37191 | 8155 ft | 311 kts | 108° |
| 2026-04-25 22:48 | 48.31882 | 16.40247 | 7751 ft | 307 kts | 108° |
| 2026-04-25 22:49 | 48.31203 | 16.43285 | 7301 ft | 307 kts | 108° |
| 2026-04-25 22:49 | 48.30514 | 16.46309 | 6866 ft | 305 kts | 109° |
| 2026-04-25 22:49 | 48.29623 | 16.49187 | 6439 ft | 303 kts | 121° |
| 2026-04-25 22:49 | 48.28346 | 16.51621 | 6246 ft | 292 kts | 137° |
| 2026-04-25 22:50 | 48.27348 | 16.52923 | 6130 ft | 283 kts | 143° |
| 2026-04-25 22:50 | 48.25821 | 16.54689 | 6012 ft | 270 kts | 145° |
| 2026-04-25 22:50 | 48.24330 | 16.56365 | 6000 ft | 267 kts | 145° |
| 2026-04-25 22:50 | 48.22843 | 16.58031 | 6002 ft | 266 kts | 146° |
| 2026-04-25 22:51 | 48.21359 | 16.59698 | 6003 ft | 267 kts | 145° |
| 2026-04-25 22:51 | 48.19884 | 16.61391 | 6004 ft | 267 kts | 143° |
| 2026-04-25 22:51 | 48.18556 | 16.63332 | 6003 ft | 268 kts | 130° |
| 2026-04-25 22:51 | 48.17516 | 16.65653 | 6005 ft | 268 kts | 118° |
| 2026-04-25 22:52 | 48.16669 | 16.68142 | 6003 ft | 268 kts | 116° |
| 2026-04-25 22:52 | 48.15849 | 16.70660 | 6004 ft | 269 kts | 115° |
| 2026-04-25 22:52 | 48.15027 | 16.73183 | 6003 ft | 270 kts | 116° |
| 2026-04-25 22:52 | 48.14198 | 16.75710 | 6003 ft | 271 kts | 116° |
| 2026-04-25 22:53 | 48.13364 | 16.78235 | 6002 ft | 270 kts | 116° |
| 2026-04-25 22:53 | 48.12464 | 16.80954 | 6003 ft | 269 kts | 116° |
| 2026-04-25 22:53 | 48.10876 | 16.85741 | 5994 ft | 269 kts | 116° |
| 2026-04-25 22:54 | 48.10040 | 16.88254 | 5994 ft | 269 kts | 116° |
| 2026-04-25 22:54 | 48.09206 | 16.90757 | 5995 ft | 269 kts | 116° |
| 2026-04-25 22:54 | 48.08376 | 16.93247 | 5771 ft | 265 kts | 116° |
| 2026-04-25 22:54 | 48.07551 | 16.95720 | 5399 ft | 265 kts | 116° |
| 2026-04-25 22:55 | 48.06731 | 16.98192 | 5085 ft | 264 kts | 116° |
| 2026-04-25 22:55 | 48.05915 | 17.00639 | 4967 ft | 263 kts | 117° |
| 2026-04-25 22:55 | 48.05088 | 17.03107 | 4607 ft | 266 kts | 117° |
| 2026-04-25 22:55 | 48.04266 | 17.05555 | 4333 ft | 261 kts | 117° |
| 2026-04-25 22:56 | 48.03459 | 17.07968 | 4057 ft | 257 kts | 117° |
| 2026-04-25 22:56 | 48.02655 | 17.10357 | 3981 ft | 258 kts | 117° |
| 2026-04-25 22:56 | 48.01852 | 17.12746 | 3983 ft | 257 kts | 117° |
| 2026-04-25 22:56 | 48.00901 | 17.14998 | 3979 ft | 256 kts | 134° |
| 2026-04-25 22:57 | 47.99476 | 17.16496 | 3988 ft | 249 kts | 163° |
| 2026-04-25 22:57 | 47.97805 | 17.16837 | 3985 ft | 240 kts | 191° |
| 2026-04-25 22:57 | 47.96239 | 17.16134 | 3984 ft | 233 kts | 210° |
| 2026-04-25 22:57 | 47.94880 | 17.14950 | 3970 ft | 216 kts | 224° |
| 2026-04-25 22:58 | 47.93976 | 17.13345 | 3968 ft | 192 kts | 246° |
| 2026-04-25 22:58 | 47.93807 | 17.11525 | 3978 ft | 173 kts | 280° |
| 2026-04-25 22:58 | 47.94055 | 17.09783 | 3996 ft | 168 kts | 287° |
| 2026-04-25 22:58 | 47.94409 | 17.08218 | 4000 ft | 154 kts | 291° |
| 2026-04-25 22:59 | 47.94839 | 17.06760 | 3993 ft | 153 kts | 295° |
| 2026-04-25 22:59 | 47.95302 | 17.05329 | 4000 ft | 154 kts | 296° |
| 2026-04-25 22:59 | 47.95769 | 17.03899 | 3993 ft | 153 kts | 296° |
| 2026-04-25 22:59 | 47.96229 | 17.02494 | 3997 ft | 152 kts | 296° |
| 2026-04-25 23:00 | 47.96695 | 17.01072 | 4000 ft | 153 kts | 296° |
| 2026-04-25 23:00 | 47.97162 | 16.99644 | 3994 ft | 153 kts | 295° |
| 2026-04-25 23:00 | 47.97629 | 16.98216 | 3996 ft | 153 kts | 296° |
| 2026-04-25 23:00 | 47.98095 | 16.96791 | 3999 ft | 153 kts | 295° |
| 2026-04-25 23:01 | 47.98559 | 16.95367 | 3994 ft | 153 kts | 296° |
| 2026-04-25 23:01 | 47.99026 | 16.93945 | 3992 ft | 152 kts | 296° |
| 2026-04-25 23:01 | 47.99490 | 16.92524 | 3998 ft | 152 kts | 296° |
| 2026-04-25 23:01 | 47.99957 | 16.91098 | 3995 ft | 153 kts | 296° |
| 2026-04-25 23:02 | 48.00426 | 16.89669 | 4001 ft | 153 kts | 296° |
| 2026-04-25 23:02 | 48.00889 | 16.88250 | 3996 ft | 151 kts | 296° |
| 2026-04-25 23:02 | 48.01350 | 16.86841 | 4000 ft | 151 kts | 296° |
| 2026-04-25 23:02 | 48.01809 | 16.85434 | 3996 ft | 151 kts | 296° |
| 2026-04-25 23:03 | 48.02269 | 16.84029 | 4011 ft | 150 kts | 296° |
| 2026-04-25 23:03 | 48.02726 | 16.82625 | 3995 ft | 150 kts | 296° |
| 2026-04-25 23:03 | 48.03187 | 16.81217 | 3988 ft | 151 kts | 296° |
| 2026-04-25 23:03 | 48.03645 | 16.79813 | 3847 ft | 150 kts | 296° |
| 2026-04-25 23:04 | 48.04104 | 16.78410 | 3636 ft | 150 kts | 296° |
| 2026-04-25 23:04 | 48.04562 | 16.77005 | 3423 ft | 151 kts | 296° |
| 2026-04-25 23:04 | 48.05022 | 16.75596 | 3215 ft | 151 kts | 296° |
| 2026-04-25 23:04 | 48.05482 | 16.74186 | 3012 ft | 150 kts | 296° |
| 2026-04-25 23:05 | 48.05937 | 16.72790 | 2820 ft | 150 kts | 296° |
| 2026-04-25 23:05 | 48.06396 | 16.71387 | 2614 ft | 150 kts | 296° |
| 2026-04-25 23:05 | 48.06853 | 16.69989 | 2414 ft | 149 kts | 295° |
| 2026-04-25 23:05 | 48.07312 | 16.68587 | 2210 ft | 151 kts | 296° |
| 2026-04-25 23:06 | 48.07772 | 16.67219 | 1993 ft | 141 kts | 296° |
| 2026-04-25 23:06 | 48.08187 | 16.65952 | 1784 ft | 130 kts | 293° |
| 2026-04-25 23:06 | 48.08546 | 16.64764 | 1671 ft | 125 kts | 294° |
| 2026-04-25 23:06 | 48.08935 | 16.63578 | 1499 ft | 129 kts | 296° |
| 2026-04-25 23:07 | 48.09335 | 16.62391 | 1349 ft | 129 kts | 295° |
| 2026-04-25 23:07 | 48.09731 | 16.61164 | 1168 ft | 131 kts | 295° |
| 2026-04-25 23:07 | 48.10127 | 16.59941 | 994 ft | 130 kts | 295° |
| 2026-04-25 23:07 | 48.10521 | 16.58729 | 821 ft | 131 kts | 295° |
| 2026-04-25 23:08 | 48.10929 | 16.57485 | 656 ft | 135 kts | 295° |
| 2026-04-25 23:08 | 48.11314 | 16.56309 | 636 ft | 106 kts | 296° |
| 2026-04-25 23:08 | 48.11514 | 16.55694 | 630 ft | 38 kts | 296° |
| 2026-04-25 23:08 | 48.11651 | 16.55360 | 632 ft | 38 kts | 314° |
| 2026-04-25 23:09 | 48.11768 | 16.55191 | 615 ft | 1 kts | 317° |
| 2026-04-25 23:09 | 48.11785 | 16.55173 | 615 ft | 6 kts | 328° |
| 2026-04-25 23:09 | 48.11831 | 16.55146 | 618 ft | 0 kts | 346° |
| 2026-04-25 23:09 | 48.11833 | 16.55145 | 628 ft | 1 kts | 346° |
| 2026-04-25 23:10 | 48.11881 | 16.55154 | 621 ft | 12 kts | 22° |
| 2026-04-25 23:10 | 48.11966 | 16.55174 | 627 ft | 14 kts | 325° |
| 2026-04-25 23:10 | 48.12016 | 16.55049 | 626 ft | 14 kts | 295° |
| 2026-04-25 23:10 | 48.12060 | 16.54907 | 625 ft | 16 kts | 295° |
| 2026-04-25 23:11 | 48.12110 | 16.54755 | 624 ft | 13 kts | 296° |
| 2026-04-25 23:11 | 48.12142 | 16.54696 | 616 ft | 5 kts | 349° |
| 2026-04-25 23:11 | 48.12188 | 16.54710 | 614 ft | 9 kts | 16° |
| 2026-04-25 23:11 | 48.12207 | 16.54724 | 624 ft | 2 kts | 27° |
| 2026-04-25 23:12 | 48.12215 | 16.54731 | 616 ft | 0 kts | 27° |
| 2026-04-25 23:14 | 48.12216 | 16.54731 | 609 ft | 0 kts | 28° |